Terminal Aerodrome Forecast
Issued by NWS Twin Cities, MN

Home | Current Version | Previous Version | Graphics & Text | Print | Product List | Glossary On
Versions: 1 2 3 4 5 6 7 8 9 10 11 12 13 14 15 16 17 18 19 20 21 22 23 24 25
000
FTUS43 KMPX 071100
TAFMSP
TAF
KMSP 071120Z 0712/0818 28006KT P6SM BKN150
     FM071500 28009KT P6SM SCT040 BKN080
      TEMPO 0719/0721 4SM -TSRA BKN040CB OVC060
     FM072100 28010KT 6SM -SHRA VCTS OVC035CB
      TEMPO 0722/0802 3SM -TSRA OVC025CB
     FM080300 29013KT P6SM SCT030 OVC040
     FM080500 29006KT P6SM SCT050 BKN250
     FM081500 31012KT P6SM SCT250=

USA.gov is the U.S. government's official web portal to all federal, state and local government web resources and services.